sensor_id;sensor_type;location;lat;lon;timestamp;pressure;altitude;pressure_sealevel;temperature;humidity
65800;BME280;52544;48.116;11.660;2023-04-19T00:00:26;96060.31;;;8.04;100.00
65800;BME280;52544;48.116;11.660;2023-04-19T00:02:52;96052.81;;;7.98;100.00
65800;BME280;52544;48.116;11.660;2023-04-19T00:05:18;96053.56;;;8.00;100.00
65800;BME280;52544;48.116;11.660;2023-04-19T00:07:44;96058.63;;;8.03;100.00
65800;BME280;52544;48.116;11.660;2023-04-19T00:10:11;96049.97;;;8.01;100.00
65800;BME280;52544;48.116;11.660;2023-04-19T00:12:36;96047.22;;;8.02;100.00
65800;BME280;52544;48.116;11.660;2023-04-19T00:15:02;96049.25;;;7.99;100.00
65800;BME280;52544;48.116;11.660;2023-04-19T00:17:27;96042.38;;;7.96;100.00
65800;BME280;52544;48.116;11.660;2023-04-19T00:19:53;96039.00;;;7.94;100.00
65800;BME280;52544;48.116;11.660;2023-04-19T00:22:18;96040.16;;;7.90;100.00
65800;BME280;52544;48.116;11.660;2023-04-19T00:24:43;96040.91;;;7.92;100.00
65800;BME280;52544;48.116;11.660;2023-04-19T00:27:09;96034.66;;;7.93;100.00
65800;BME280;52544;48.116;11.660;2023-04-19T00:29:35;96038.16;;;7.94;100.00
65800;BME280;52544;48.116;11.660;2023-04-19T00:32:00;96029.31;;;7.95;100.00
65800;BME280;52544;48.116;11.660;2023-04-19T00:34:26;96033.75;;;7.94;100.00
65800;BME280;52544;48.116;11.660;2023-04-19T00:36:51;96029.63;;;7.90;100.00
65800;BME280;52544;48.116;11.660;2023-04-19T00:39:16;96034.78;;;7.92;100.00
65800;BME280;52544;48.116;11.660;2023-04-19T00:41:42;96029.50;;;7.92;100.00
65800;BME280;52544;48.116;11.660;2023-04-19T00:44:07;96028.66;;;7.91;100.00
65800;BME280;52544;48.116;11.660;2023-04-19T00:46:33;96027.72;;;7.92;100.00
65800;BME280;52544;48.116;11.660;2023-04-19T00:48:59;96020.13;;;7.88;100.00
65800;BME280;52544;48.116;11.660;2023-04-19T00:51:24;96018.31;;;7.88;100.00
65800;BME280;52544;48.116;11.660;2023-04-19T00:53:51;96021.06;;;7.87;100.00
65800;BME280;52544;48.116;11.660;2023-04-19T00:56:17;96010.41;;;7.88;100.00
65800;BME280;52544;48.116;11.660;2023-04-19T00:58:45;96018.44;;;7.87;100.00
65800;BME280;52544;48.116;11.660;2023-04-19T01:01:10;96012.22;;;7.88;100.00
65800;BME280;52544;48.116;11.660;2023-04-19T01:03:36;96013.06;;;7.88;100.00
65800;BME280;52544;48.116;11.660;2023-04-19T01:06:01;96008.63;;;7.89;100.00
65800;BME280;52544;48.116;11.660;2023-04-19T01:08:27;96012.22;;;7.88;100.00
65800;BME280;52544;48.116;11.660;2023-04-19T01:10:52;96019.28;;;7.87;100.00
65800;BME280;52544;48.116;11.660;2023-04-19T01:13:17;96015.81;;;7.87;100.00
65800;BME280;52544;48.116;11.660;2023-04-19T01:15:43;96012.53;;;7.83;100.00
65800;BME280;52544;48.116;11.660;2023-04-19T01:18:08;96009.06;;;7.83;100.00
65800;BME280;52544;48.116;11.660;2023-04-19T01:20:34;96002.31;;;7.79;100.00
65800;BME280;52544;48.116;11.660;2023-04-19T01:22:59;96007.38;;;7.82;100.00
65800;BME280;52544;48.116;11.660;2023-04-19T01:25:24;96004.00;;;7.80;100.00
65800;BME280;52544;48.116;11.660;2023-04-19T01:27:50;96001.25;;;7.81;100.00
65800;BME280;52544;48.116;11.660;2023-04-19T01:30:16;95995.34;;;7.78;100.00
65800;BME280;52544;48.116;11.660;2023-04-19T01:32:41;95998.72;;;7.80;100.00
65800;BME280;52544;48.116;11.660;2023-04-19T01:35:07;95989.84;;;7.81;100.00
65800;BME280;52544;48.116;11.660;2023-04-19T01:37:35;95987.22;;;7.81;100.00
65800;BME280;52544;48.116;11.660;2023-04-19T01:40:03;95988.94;;;7.82;100.00
65800;BME280;52544;48.116;11.660;2023-04-19T01:42:29;95985.44;;;7.81;100.00
65800;BME280;52544;48.116;11.660;2023-04-19T01:44:55;95983.66;;;7.82;100.00
65800;BME280;52544;48.116;11.660;2023-04-19T01:47:20;95981.03;;;7.82;100.00
65800;BME280;52544;48.116;11.660;2023-04-19T01:49:46;95985.53;;;7.80;100.00
65800;BME280;52544;48.116;11.660;2023-04-19T01:52:11;95976.03;;;7.77;100.00
65800;BME280;52544;48.116;11.660;2023-04-19T01:54:36;95977.84;;;7.76;100.00
65800;BME280;52544;48.116;11.660;2023-04-19T01:57:02;95979.94;;;7.71;100.00
65800;BME280;52544;48.116;11.660;2023-04-19T01:59:27;95975.44;;;7.73;100.00
65800;BME280;52544;48.116;11.660;2023-04-19T02:01:53;95965.63;;;7.75;100.00
65800;BME280;52544;48.116;11.660;2023-04-19T02:04:19;95974.47;;;7.74;100.00
65800;BME280;52544;48.116;11.660;2023-04-19T02:06:45;95975.09;;;7.65;100.00
65800;BME280;52544;48.116;11.660;2023-04-19T02:09:11;95971.53;;;7.66;100.00
65800;BME280;52544;48.116;11.660;2023-04-19T02:11:36;95969.59;;;7.68;100.00
65800;BME280;52544;48.116;11.660;2023-04-19T02:14:02;95969.59;;;7.68;100.00
65800;BME280;52544;48.116;11.660;2023-04-19T02:16:28;95960.97;;;7.66;100.00
65800;BME280;52544;48.116;11.660;2023-04-19T02:18:53;95958.47;;;7.65;100.00
65800;BME280;52544;48.116;11.660;2023-04-19T02:21:19;95962.66;;;7.67;100.00
65800;BME280;52544;48.116;11.660;2023-04-19T02:23:44;95959.19;;;7.67;100.00
65800;BME280;52544;48.116;11.660;2023-04-19T02:26:10;95952.03;;;7.69;100.00
65800;BME280;52544;48.116;11.660;2023-04-19T02:28:35;95959.31;;;7.65;100.00
65800;BME280;52544;48.116;11.660;2023-04-19T02:31:05;95952.31;;;7.64;100.00
65800;BME280;52544;48.116;11.660;2023-04-19T02:33:31;95948.97;;;7.62;100.00
65800;BME280;52544;48.116;11.660;2023-04-19T02:35:56;95952.31;;;7.64;100.00
65800;BME280;52544;48.116;11.660;2023-04-19T02:38:21;95946.84;;;7.67;100.00
65800;BME280;52544;48.116;11.660;2023-04-19T02:40:47;95944.34;;;7.66;100.00
65800;BME280;52544;48.116;11.660;2023-04-19T02:43:13;95945.19;;;7.66;100.00
65800;BME280;52544;48.116;11.660;2023-04-19T02:45:38;95939.28;;;7.63;100.00
65800;BME280;52544;48.116;11.660;2023-04-19T02:48:04;95940.09;;;7.63;100.00
65800;BME280;52544;48.116;11.660;2023-04-19T02:50:31;95940.88;;;7.65;100.00
65800;BME280;52544;48.116;11.660;2023-04-19T02:52:57;95934.75;;;7.65;100.00
65800;BME280;52544;48.116;11.660;2023-04-19T02:55:23;95944.66;;;7.61;100.00
65800;BME280;52544;48.116;11.660;2023-04-19T02:57:48;95937.91;;;7.57;100.00
65800;BME280;52544;48.116;11.660;2023-04-19T03:00:14;95933.78;;;7.53;100.00
65800;BME280;52544;48.116;11.660;2023-04-19T03:02:41;95928.72;;;7.50;100.00
65800;BME280;52544;48.116;11.660;2023-04-19T03:05:08;95930.63;;;7.48;100.00
65800;BME280;52544;48.116;11.660;2023-04-19T03:07:34;95924.59;;;7.46;100.00
65800;BME280;52544;48.116;11.660;2023-04-19T03:09:59;95932.63;;;7.44;100.00
65800;BME280;52544;48.116;11.660;2023-04-19T03:12:25;95929.75;;;7.47;100.00
65800;BME280;52544;48.116;11.660;2023-04-19T03:14:50;95927.03;;;7.49;100.00
65800;BME280;52544;48.116;11.660;2023-04-19T03:17:15;95921.03;;;7.47;100.00
65800;BME280;52544;48.116;11.660;2023-04-19T03:19:41;95927.25;;;7.46;100.00
65800;BME280;52544;48.116;11.660;2023-04-19T03:22:06;95925.56;;;7.45;100.00
65800;BME280;52544;48.116;11.660;2023-04-19T03:24:32;95923.88;;;7.44;100.00
65800;BME280;52544;48.116;11.660;2023-04-19T03:26:57;95918.38;;;7.47;100.00
65800;BME280;52544;48.116;11.660;2023-04-19T03:29:23;95909.66;;;7.46;100.00
65800;BME280;52544;48.116;11.660;2023-04-19T03:31:48;95908.50;;;7.50;100.00
65800;BME280;52544;48.116;11.660;2023-04-19T03:34:14;95910.41;;;7.48;100.00
65800;BME280;52544;48.116;11.660;2023-04-19T03:36:39;95913.22;;;7.45;100.00
65800;BME280;52544;48.116;11.660;2023-04-19T03:39:05;95902.69;;;7.45;100.00
65800;BME280;52544;48.116;11.660;2023-04-19T03:41:31;95902.19;;;7.53;100.00
65800;BME280;52544;48.116;11.660;2023-04-19T03:43:57;95908.28;;;7.54;100.00
65800;BME280;52544;48.116;11.660;2023-04-19T03:46:23;95901.97;;;7.56;100.00
65800;BME280;52544;48.116;11.660;2023-04-19T03:48:49;95903.88;;;7.54;100.00
65800;BME280;52544;48.116;11.660;2023-04-19T03:51:15;95897.88;;;7.52;100.00
65800;BME280;52544;48.116;11.660;2023-04-19T03:53:41;95895.25;;;7.52;100.00
65800;BME280;52544;48.116;11.660;2023-04-19T03:56:06;95895.13;;;7.54;100.00
65800;BME280;52544;48.116;11.660;2023-04-19T03:58:32;95896.81;;;7.55;100.00
65800;BME280;52544;48.116;11.660;2023-04-19T04:00:58;95895.97;;;7.54;100.00
65800;BME280;52544;48.116;11.660;2023-04-19T04:03:23;95894.09;;;7.56;100.00
65800;BME280;52544;48.116;11.660;2023-04-19T04:05:49;95903.88;;;7.54;100.00
65800;BME280;52544;48.116;11.660;2023-04-19T04:08:14;95898.78;;;7.51;100.00
65800;BME280;52544;48.116;11.660;2023-04-19T04:10:39;95905.97;;;7.49;100.00
65800;BME280;52544;48.116;11.660;2023-04-19T04:13:05;95902.59;;;7.47;100.00
65800;BME280;52544;48.116;11.660;2023-04-19T04:15:30;95902.59;;;7.47;100.00
65800;BME280;52544;48.116;11.660;2023-04-19T04:17:55;95897.75;;;7.41;100.00
65800;BME280;52544;48.116;11.660;2023-04-19T04:20:21;95906.19;;;7.46;100.00
65800;BME280;52544;48.116;11.660;2023-04-19T04:22:46;95907.25;;;7.43;100.00
65800;BME280;52544;48.116;11.660;2023-04-19T04:25:13;95899.44;;;7.42;100.00
65800;BME280;52544;48.116;11.660;2023-04-19T04:27:40;95900.38;;;7.41;100.00
65800;BME280;52544;48.116;11.660;2023-04-19T04:30:07;95906.38;;;7.43;100.00
65800;BME280;52544;48.116;11.660;2023-04-19T04:32:33;95906.38;;;7.43;100.00
65800;BME280;52544;48.116;11.660;2023-04-19T04:35:05;95906.38;;;7.43;100.00
65800;BME280;52544;48.116;11.660;2023-04-19T04:37:31;95909.56;;;7.48;100.00
65800;BME280;52544;48.116;11.660;2023-04-19T04:40:00;95899.94;;;7.47;100.00
65800;BME280;52544;48.116;11.660;2023-04-19T04:42:26;95900.72;;;7.49;100.00
65800;BME280;52544;48.116;11.660;2023-04-19T04:44:52;95901.66;;;7.48;100.00
65800;BME280;52544;48.116;11.660;2023-04-19T04:47:19;95902.69;;;7.45;100.00
65800;BME280;52544;48.116;11.660;2023-04-19T04:49:45;95900.38;;;7.41;100.00
65800;BME280;52544;48.116;11.660;2023-04-19T04:52:10;95904.59;;;7.43;100.00
65800;BME280;52544;48.116;11.660;2023-04-19T04:54:36;95899.63;;;7.39;100.00
65800;BME280;52544;48.116;11.660;2023-04-19T04:57:01;95899.84;;;7.36;100.00
65800;BME280;52544;48.116;11.660;2023-04-19T04:59:27;95904.69;;;7.42;100.00
65800;BME280;52544;48.116;11.660;2023-04-19T05:01:52;95900.28;;;7.42;100.00
65800;BME280;52544;48.116;11.660;2023-04-19T05:04:18;95894.38;;;7.39;100.00
65800;BME280;52544;48.116;11.660;2023-04-19T05:06:43;95900.28;;;7.42;100.00
65800;BME280;52544;48.116;11.660;2023-04-19T05:09:09;95891.53;;;7.42;100.00
65800;BME280;52544;48.116;11.660;2023-04-19T05:11:35;95894.16;;;7.42;100.00
65800;BME280;52544;48.116;11.660;2023-04-19T05:14:01;95895.13;;;7.41;100.00
65800;BME280;52544;48.116;11.660;2023-04-19T05:16:26;95893.53;;;7.38;100.00
65800;BME280;52544;48.116;11.660;2023-04-19T05:18:52;95904.50;;;7.45;100.00
65800;BME280;52544;48.116;11.660;2023-04-19T05:21:17;95894.81;;;7.45;100.00
65800;BME280;52544;48.116;11.660;2023-04-19T05:23:43;95897.63;;;7.42;100.00
65800;BME280;52544;48.116;11.660;2023-04-19T05:26:08;95893.97;;;7.45;100.00
65800;BME280;52544;48.116;11.660;2023-04-19T05:28:37;95893.22;;;7.43;100.00
65800;BME280;52544;48.116;11.660;2023-04-19T05:31:03;95889.53;;;7.45;100.00
65800;BME280;52544;48.116;11.660;2023-04-19T05:33:28;95898.59;;;7.41;100.00
65800;BME280;52544;48.116;11.660;2023-04-19T05:35:53;95892.47;;;7.41;100.00
65800;BME280;52544;48.116;11.660;2023-04-19T05:38:19;95894.16;;;7.42;100.00
65800;BME280;52544;48.116;11.660;2023-04-19T05:40:45;95888.06;;;7.41;100.00
65800;BME280;52544;48.116;11.660;2023-04-19T05:43:10;95896.28;;;7.37;100.00
65800;BME280;52544;48.116;11.660;2023-04-19T05:45:36;95893.44;;;7.40;100.00
65800;BME280;52544;48.116;11.660;2023-04-19T05:48:01;95893.97;;;7.45;100.00
65800;BME280;52544;48.116;11.660;2023-04-19T05:50:26;95893.00;;;7.46;100.00
65800;BME280;52544;48.116;11.660;2023-04-19T05:52:52;95889.34;;;7.48;100.00
65800;BME280;52544;48.116;11.660;2023-04-19T05:55:17;95886.69;;;7.48;100.00
65800;BME280;52544;48.116;11.660;2023-04-19T05:57:43;95884.28;;;7.45;100.00
65800;BME280;52544;48.116;11.660;2023-04-19T06:00:08;95888.50;;;7.48;100.00
65800;BME280;52544;48.116;11.660;2023-04-19T06:02:35;95886.69;;;7.48;100.00
65800;BME280;52544;48.116;11.660;2023-04-19T06:05:00;95891.84;;;7.50;100.00
65800;BME280;52544;48.116;11.660;2023-04-19T06:07:29;95887.22;;;7.54;100.00
65800;BME280;52544;48.116;11.660;2023-04-19T06:09:55;95885.53;;;7.53;100.00
65800;BME280;52544;48.116;11.660;2023-04-19T06:12:20;95888.38;;;7.49;100.00
65800;BME280;52544;48.116;11.660;2023-04-19T06:14:46;95895.00;;;7.55;100.00
65800;BME280;52544;48.116;11.660;2023-04-19T06:17:11;95898.16;;;7.47;100.00
65800;BME280;52544;48.116;11.660;2023-04-19T06:19:36;95890.91;;;7.51;100.00
65800;BME280;52544;48.116;11.660;2023-04-19T06:22:02;95892.59;;;7.52;100.00
65800;BME280;52544;48.116;11.660;2023-04-19T06:24:27;95880.91;;;7.56;100.00
65800;BME280;52544;48.116;11.660;2023-04-19T06:26:53;95879.00;;;7.58;100.00
65800;BME280;52544;48.116;11.660;2023-04-19T06:29:18;95880.03;;;7.56;100.00
65800;BME280;52544;48.116;11.660;2023-04-19T06:31:46;95886.78;;;7.60;100.00
65800;BME280;52544;48.116;11.660;2023-04-19T06:34:11;95883.44;;;7.58;100.00
65800;BME280;52544;48.116;11.660;2023-04-19T06:36:37;95880.69;;;7.59;100.00
65800;BME280;52544;48.116;11.660;2023-04-19T06:39:02;95885.31;;;7.56;100.00
65800;BME280;52544;48.116;11.660;2023-04-19T06:41:28;95881.63;;;7.58;100.00
65800;BME280;52544;48.116;11.660;2023-04-19T06:43:53;95882.69;;;7.56;100.00
65800;BME280;52544;48.116;11.660;2023-04-19T06:46:19;95884.47;;;7.55;100.00
65800;BME280;52544;48.116;11.660;2023-04-19T06:48:44;95879.00;;;7.58;100.00
65800;BME280;52544;48.116;11.660;2023-04-19T06:51:10;95875.41;;;7.59;100.00
65800;BME280;52544;48.116;11.660;2023-04-19T06:53:35;95877.53;;;7.54;100.00
65800;BME280;52544;48.116;11.660;2023-04-19T06:56:02;95870.66;;;7.51;100.00
65800;BME280;52544;48.116;11.660;2023-04-19T06:58:31;95873.84;;;7.57;100.00
65800;BME280;52544;48.116;11.660;2023-04-19T07:00:57;95873.53;;;7.61;100.00
65800;BME280;52544;48.116;11.660;2023-04-19T07:03:23;95873.53;;;7.61;100.00
65800;BME280;52544;48.116;11.660;2023-04-19T07:05:48;95877.84;;;7.62;100.00
65800;BME280;52544;48.116;11.660;2023-04-19T07:08:16;95870.56;;;7.66;100.00
65800;BME280;52544;48.116;11.660;2023-04-19T07:10:41;95873.09;;;7.67;100.00
65800;BME280;52544;48.116;11.660;2023-04-19T07:13:09;95875.53;;;7.70;100.00
65800;BME280;52544;48.116;11.660;2023-04-19T07:15:34;95872.91;;;7.70;100.00
65800;BME280;52544;48.116;11.660;2023-04-19T07:18:00;95868.56;;;7.69;100.00
65800;BME280;52544;48.116;11.660;2023-04-19T07:20:25;95877.97;;;7.73;100.00
65800;BME280;52544;48.116;11.660;2023-04-19T07:22:51;95875.53;;;7.70;100.00
65800;BME280;52544;48.116;11.660;2023-04-19T07:25:16;95870.06;;;7.73;100.00
65800;BME280;52544;48.116;11.660;2023-04-19T07:27:41;95866.34;;;7.76;100.00
65800;BME280;52544;48.116;11.660;2023-04-19T07:30:07;95867.50;;;7.72;100.00
65800;BME280;52544;48.116;11.660;2023-04-19T07:32:33;95870.25;;;7.70;100.00
65800;BME280;52544;48.116;11.660;2023-04-19T07:34:58;95865.09;;;7.69;100.00
65800;BME280;52544;48.116;11.660;2023-04-19T07:37:24;95865.09;;;7.69;100.00
65800;BME280;52544;48.116;11.660;2023-04-19T07:39:49;95865.81;;;7.71;100.00
65800;BME280;52544;48.116;11.660;2023-04-19T07:42:15;95863.00;;;7.74;100.00
65800;BME280;52544;48.116;11.660;2023-04-19T07:44:40;95860.13;;;7.77;100.00
65800;BME280;52544;48.116;11.660;2023-04-19T07:47:06;95856.44;;;7.80;100.00
65800;BME280;52544;48.116;11.660;2023-04-19T07:49:31;95851.78;;;7.96;100.00
65800;BME280;52544;48.116;11.660;2023-04-19T07:52:01;95853.97;;;8.02;100.00
65800;BME280;52544;48.116;11.660;2023-04-19T07:54:26;95851.88;;;8.07;100.00
65800;BME280;52544;48.116;11.660;2023-04-19T07:56:52;95851.84;;;8.20;100.00
65800;BME280;52544;48.116;11.660;2023-04-19T07:59:17;95841.78;;;8.25;100.00
65800;BME280;52544;48.116;11.660;2023-04-19T08:01:43;95848.19;;;8.46;100.00
65800;BME280;52544;48.116;11.660;2023-04-19T08:04:08;95851.06;;;8.67;100.00
65800;BME280;52544;48.116;11.660;2023-04-19T08:06:34;95846.41;;;8.71;100.00
65800;BME280;52544;48.116;11.660;2023-04-19T08:09:02;95843.16;;;8.79;100.00
65800;BME280;52544;48.116;11.660;2023-04-19T08:11:27;95840.78;;;8.75;100.00
65800;BME280;52544;48.116;11.660;2023-04-19T08:13:53;95846.00;;;8.64;100.00
65800;BME280;52544;48.116;11.660;2023-04-19T08:16:18;95843.16;;;8.79;100.00
65800;BME280;52544;48.116;11.660;2023-04-19T08:18:44;95838.16;;;8.87;100.00
65800;BME280;52544;48.116;11.660;2023-04-19T08:21:10;95841.69;;;8.98;100.00
65800;BME280;52544;48.116;11.660;2023-04-19T08:23:36;95839.94;;;9.10;100.00
65800;BME280;52544;48.116;11.660;2023-04-19T08:26:01;95829.28;;;9.23;100.00
65800;BME280;52544;48.116;11.660;2023-04-19T08:28:27;95832.19;;;9.31;100.00
65800;BME280;52544;48.116;11.660;2023-04-19T08:30:53;95822.94;;;9.37;100.00
65800;BME280;52544;48.116;11.660;2023-04-19T08:33:19;95828.25;;;9.48;100.00
65800;BME280;52544;48.116;11.660;2023-04-19T08:35:44;95828.38;;;9.58;100.00
65800;BME280;52544;48.116;11.660;2023-04-19T08:38:10;95827.78;;;9.65;100.00
65800;BME280;52544;48.116;11.660;2023-04-19T08:40:40;95819.47;;;9.59;100.00
65800;BME280;52544;48.116;11.660;2023-04-19T08:43:09;95827.19;;;9.73;100.00
65800;BME280;52544;48.116;11.660;2023-04-19T08:45:35;95818.63;;;9.81;100.00
65800;BME280;52544;48.116;11.660;2023-04-19T08:48:01;95826.56;;;9.92;100.00
65800;BME280;52544;48.116;11.660;2023-04-19T08:50:29;95823.22;;;9.79;100.00
65800;BME280;52544;48.116;11.660;2023-04-19T08:52:54;95818.88;;;9.66;100.00
65800;BME280;52544;48.116;11.660;2023-04-19T08:55:22;95816.63;;;9.73;100.00
65800;BME280;52544;48.116;11.660;2023-04-19T08:57:47;95821.53;;;9.77;100.00
65800;BME280;52544;48.116;11.660;2023-04-19T09:00:14;95819.97;;;9.75;100.00
65800;BME280;52544;48.116;11.660;2023-04-19T09:02:47;95806.50;;;9.67;100.00
65800;BME280;52544;48.116;11.660;2023-04-19T09:05:14;95809.41;;;9.75;100.00
65800;BME280;52544;48.116;11.660;2023-04-19T09:07:40;95809.03;;;9.68;100.00
65800;BME280;52544;48.116;11.660;2023-04-19T09:10:07;95801.09;;;9.68;100.00
65800;BME280;52544;48.116;11.660;2023-04-19T09:12:34;95800.88;;;9.83;100.00
65800;BME280;52544;48.116;11.660;2023-04-19T09:15:01;95791.72;;;9.75;100.00
65800;BME280;52544;48.116;11.660;2023-04-19T09:17:32;95794.03;;;9.69;100.00
65800;BME280;52544;48.116;11.660;2023-04-19T09:19:58;95798.94;;;9.73;100.00
65800;BME280;52544;48.116;11.660;2023-04-19T09:22:25;95788.97;;;9.66;100.00
65800;BME280;52544;48.116;11.660;2023-04-19T09:24:50;95792.31;;;9.68;100.00
65800;BME280;52544;48.116;11.660;2023-04-19T09:27:35;95797.38;;;9.71;100.00
65800;BME280;52544;48.116;11.660;2023-04-19T09:30:03;95781.06;;;9.77;100.00
65800;BME280;52544;48.116;11.660;2023-04-19T09:32:44;95787.88;;;9.91;100.00
65800;BME280;52544;48.116;11.660;2023-04-19T09:35:10;95784.03;;;9.95;100.00
65800;BME280;52544;48.116;11.660;2023-04-19T09:37:35;95779.69;;;9.94;100.00
65800;BME280;52544;48.116;11.660;2023-04-19T09:40:23;95779.91;;;10.02;100.00
65800;BME280;52544;48.116;11.660;2023-04-19T09:42:48;95777.78;;;10.07;100.00
65800;BME280;52544;48.116;11.660;2023-04-19T09:45:14;95769.41;;;10.23;100.00
65800;BME280;52544;48.116;11.660;2023-04-19T09:47:39;95758.00;;;10.45;100.00
65800;BME280;52544;48.116;11.660;2023-04-19T09:50:05;95758.13;;;10.64;96.96
65800;BME280;52544;48.116;11.660;2023-04-19T09:52:32;95747.56;;;10.85;96.89
65800;BME280;52544;48.116;11.660;2023-04-19T09:55:03;95747.63;;;11.16;95.38
65800;BME280;52544;48.116;11.660;2023-04-19T09:57:30;95743.63;;;11.21;93.18
65800;BME280;52544;48.116;11.660;2023-04-19T09:59:57;95739.63;;;11.06;90.74
65800;BME280;52544;48.116;11.660;2023-04-19T10:02:23;95734.63;;;11.13;92.42
65800;BME280;52544;48.116;11.660;2023-04-19T10:04:50;95742.28;;;11.06;92.54
65800;BME280;52544;48.116;11.660;2023-04-19T10:07:17;95737.38;;;11.01;93.38
65800;BME280;52544;48.116;11.660;2023-04-19T10:09:45;95733.34;;;11.07;89.10
65800;BME280;52544;48.116;11.660;2023-04-19T10:12:14;95724.31;;;11.10;89.13
65800;BME280;52544;48.116;11.660;2023-04-19T10:14:41;95731.81;;;11.05;90.79
65800;BME280;52544;48.116;11.660;2023-04-19T10:17:06;95728.84;;;10.98;89.00
65800;BME280;52544;48.116;11.660;2023-04-19T10:19:34;95720.06;;;10.97;90.57
65800;BME280;52544;48.116;11.660;2023-04-19T10:22:00;95718.31;;;10.87;89.72
65800;BME280;52544;48.116;11.660;2023-04-19T10:24:29;95727.06;;;10.87;90.75
65800;BME280;52544;48.116;11.660;2023-04-19T10:27:07;95716.63;;;10.86;92.73
65800;BME280;52544;48.116;11.660;2023-04-19T10:29:54;95710.69;;;10.72;92.35
65800;BME280;52544;48.116;11.660;2023-04-19T10:32:19;95705.66;;;10.69;93.27
65800;BME280;52544;48.116;11.660;2023-04-19T10:34:45;95704.50;;;10.62;92.99
65800;BME280;52544;48.116;11.660;2023-04-19T10:37:13;95716.31;;;10.58;92.10
65800;BME280;52544;48.116;11.660;2023-04-19T10:39:43;95711.66;;;10.50;93.67
65800;BME280;52544;48.116;11.660;2023-04-19T10:42:09;95707.97;;;10.42;96.87
65800;BME280;52544;48.116;11.660;2023-04-19T10:44:34;95710.00;;;10.38;99.43
65800;BME280;52544;48.116;11.660;2023-04-19T10:46:59;95702.47;;;10.34;99.26
65800;BME280;52544;48.116;11.660;2023-04-19T10:49:27;95695.59;;;10.31;99.56
65800;BME280;52544;48.116;11.660;2023-04-19T10:51:52;95698.16;;;10.21;98.45
65800;BME280;52544;48.116;11.660;2023-04-19T10:54:35;95692.41;;;10.16;100.00
65800;BME280;52544;48.116;11.660;2023-04-19T10:57:07;95686.38;;;10.14;100.00
65800;BME280;52544;48.116;11.660;2023-04-19T10:59:37;95687.59;;;10.10;100.00
65800;BME280;52544;48.116;11.660;2023-04-19T11:02:27;95673.91;;;10.05;100.00
65800;BME280;52544;48.116;11.660;2023-04-19T11:07:18;95678.00;;;9.98;100.00
65800;BME280;52544;48.116;11.660;2023-04-19T11:09:46;95668.78;;;9.92;100.00
65800;BME280;52544;48.116;11.660;2023-04-19T11:12:14;95674.06;;;9.92;100.00
65800;BME280;52544;48.116;11.660;2023-04-19T11:14:41;95672.53;;;9.90;100.00
65800;BME280;52544;48.116;11.660;2023-04-19T11:17:21;95661.47;;;9.85;100.00
65800;BME280;52544;48.116;11.660;2023-04-19T11:22:28;95658.72;;;9.86;100.00
65800;BME280;52544;48.116;11.660;2023-04-19T11:24:54;95666.66;;;9.86;99.89
65800;BME280;52544;48.116;11.660;2023-04-19T11:27:20;95657.03;;;9.85;96.98
65800;BME280;52544;48.116;11.660;2023-04-19T11:29:45;95652.13;;;9.81;99.77
65800;BME280;52544;48.116;11.660;2023-04-19T11:32:11;95649.75;;;9.77;100.00
65800;BME280;52544;48.116;11.660;2023-04-19T11:34:37;95655.50;;;9.71;100.00
65800;BME280;52544;48.116;11.660;2023-04-19T11:37:03;95655.03;;;9.77;98.42
65800;BME280;52544;48.116;11.660;2023-04-19T11:39:29;95652.88;;;9.71;100.00
65800;BME280;52544;48.116;11.660;2023-04-19T11:41:54;95662.13;;;9.66;100.00
65800;BME280;52544;48.116;11.660;2023-04-19T11:44:20;95652.91;;;9.60;100.00
65800;BME280;52544;48.116;11.660;2023-04-19T11:46:59;95665.91;;;9.52;100.00
65800;BME280;52544;48.116;11.660;2023-04-19T11:49:31;95663.03;;;9.44;100.00
65800;BME280;52544;48.116;11.660;2023-04-19T11:52:01;95652.81;;;9.28;100.00
65800;BME280;52544;48.116;11.660;2023-04-19T11:54:27;95656.78;;;9.34;100.00
65800;BME280;52544;48.116;11.660;2023-04-19T11:57:03;95657.75;;;9.33;100.00
65800;BME280;52544;48.116;11.660;2023-04-19T11:59:29;95661.59;;;9.17;100.00
65800;BME280;52544;48.116;11.660;2023-04-19T12:01:55;95660.88;;;9.15;100.00
65800;BME280;52544;48.116;11.660;2023-04-19T12:04:21;95652.97;;;9.15;100.00
65800;BME280;52544;48.116;11.660;2023-04-19T12:06:56;95652.72;;;9.18;100.00
65800;BME280;52544;48.116;11.660;2023-04-19T12:09:22;95651.28;;;9.14;100.00
65800;BME280;52544;48.116;11.660;2023-04-19T12:11:48;95650.09;;;9.18;100.00
65800;BME280;52544;48.116;11.660;2023-04-19T12:14:16;95655.13;;;9.10;100.00
65800;BME280;52544;48.116;11.660;2023-04-19T12:16:44;95648.88;;;9.00;100.00
65800;BME280;52544;48.116;11.660;2023-04-19T12:21:38;95653.19;;;8.90;100.00
65800;BME280;52544;48.116;11.660;2023-04-19T12:24:03;95648.13;;;8.87;100.00
65800;BME280;52544;48.116;11.660;2023-04-19T12:26:29;95640.59;;;8.93;100.00
65800;BME280;52544;48.116;11.660;2023-04-19T12:28:55;95639.41;;;8.97;100.00
65800;BME280;52544;48.116;11.660;2023-04-19T12:31:21;95641.91;;;8.99;100.00
65800;BME280;52544;48.116;11.660;2023-04-19T12:36:15;95647.31;;;8.97;100.00
65800;BME280;52544;48.116;11.660;2023-04-19T12:38:41;95645.16;;;8.91;100.00
65800;BME280;52544;48.116;11.660;2023-04-19T12:41:06;95642.16;;;8.85;100.00
65800;BME280;52544;48.116;11.660;2023-04-19T12:43:32;95642.88;;;8.75;100.00
65800;BME280;52544;48.116;11.660;2023-04-19T12:45:58;95642.97;;;8.74;100.00
65800;BME280;52544;48.116;11.660;2023-04-19T12:48:27;95638.78;;;8.71;100.00
65800;BME280;52544;48.116;11.660;2023-04-19T12:50:53;95636.38;;;8.68;100.00
65800;BME280;52544;48.116;11.660;2023-04-19T12:53:19;95640.81;;;8.68;100.00
65800;BME280;52544;48.116;11.660;2023-04-19T12:55:44;95638.78;;;8.71;100.00